Time,TemperatureF,DewpointF,PressureIn,WindDirection,WindDirectionDegrees,WindSpeedMPH,WindSpeedGustMPH,Humidity,HourlyPrecipIn,Conditions,Clouds,dailyrainin,SoftwareType,DateUTC
2013-05-24 00:03:00,66.0,64.0,29.78,South,172,2.0,8.0,93,0.18,,,0.53,,2013-05-24 04:03:00,
2013-05-24 00:12:00,66.0,64.0,29.78,South,172,2.0,8.0,93,0.18,,,0.53,,2013-05-24 04:12:00,
2013-05-24 00:22:00,66.0,64.0,29.78,South,176,3.0,10.0,93,0.14,,,0.55,,2013-05-24 04:22:00,
2013-05-24 00:33:00,66.0,64.0,29.78,South,173,2.0,7.0,93,0.11,,,0.55,,2013-05-24 04:33:00,
2013-05-24 00:42:00,66.0,64.0,29.78,South,173,2.0,7.0,93,0.11,,,0.55,,2013-05-24 04:42:00,
2013-05-24 00:53:00,66.0,64.0,29.77,South,176,1.0,8.0,94,0.04,,,0.57,,2013-05-24 04:53:00,
2013-05-24 01:02:00,66.0,64.0,29.77,South,176,1.0,8.0,94,0.04,,,0.57,,2013-05-24 05:02:00,
2013-05-24 01:12:00,66.0,64.0,29.77,South,176,1.0,8.0,94,0.04,,,0.57,,2013-05-24 05:12:00,
2013-05-24 01:22:00,66.0,64.0,29.76,SSE,157,1.0,6.0,94,0.11,,,0.66,,2013-05-24 05:22:00,
2013-05-24 01:32:00,66.0,64.0,29.76,SSE,161,1.0,7.0,94,0.13,,,0.68,,2013-05-24 05:32:00,
2013-05-24 01:42:00,66.0,64.0,29.76,SSE,161,1.0,7.0,94,0.13,,,0.68,,2013-05-24 05:42:00,
2013-05-24 01:52:00,66.0,64.0,29.75,SE,146,2.0,7.0,94,0.19,,,0.76,,2013-05-24 05:52:00,
2013-05-24 02:02:00,66.0,64.0,29.74,SSE,168,1.0,5.0,94,0.16,,,0.80,,2013-05-24 06:02:00,
2013-05-24 02:12:00,66.0,64.0,29.74,SSE,168,1.0,5.0,94,0.16,,,0.80,,2013-05-24 06:12:00,
2013-05-24 02:21:00,66.0,64.0,29.74,SSE,159,1.0,6.0,94,0.15,,,0.81,,2013-05-24 06:21:00,
2013-05-24 02:32:00,66.0,64.0,29.74,SSE,159,1.0,6.0,94,0.15,,,0.81,,2013-05-24 06:32:00,
2013-05-24 02:42:00,66.0,64.0,29.74,SSE,159,1.0,6.0,94,0.15,,,0.81,,2013-05-24 06:42:00,
2013-05-24 02:52:00,66.0,64.0,29.72,SSE,166,2.0,10.0,94,0.17,,,0.92,,2013-05-24 06:52:00,
2013-05-24 03:01:00,65.0,63.0,29.72,SE,133,1.0,9.0,94,0.27,,,1.06,,2013-05-24 07:01:00,
2013-05-24 03:11:00,65.0,63.0,29.72,SE,133,1.0,9.0,94,0.27,,,1.06,,2013-05-24 07:11:00,
2013-05-24 03:22:00,65.0,63.0,29.71,SE,132,1.0,8.0,94,0.28,,,1.08,,2013-05-24 07:22:00,
2013-05-24 03:32:00,65.0,63.0,29.70,SE,142,1.0,4.0,94,0.22,,,1.10,,2013-05-24 07:32:00,
2013-05-24 03:42:00,65.0,63.0,29.70,SE,142,1.0,4.0,94,0.22,,,1.10,,2013-05-24 07:42:00,
2013-05-24 03:52:00,65.0,63.0,29.70,SSE,150,1.0,9.0,94,0.30,,,1.23,,2013-05-24 07:52:00,
2013-05-24 04:02:00,65.0,63.0,29.69,South,186,2.0,8.0,94,0.35,,,1.41,,2013-05-24 08:02:00,
2013-05-24 04:11:00,65.0,63.0,29.69,South,186,2.0,8.0,94,0.35,,,1.41,,2013-05-24 08:11:00,
2013-05-24 04:22:00,65.0,63.0,29.69,South,186,2.0,8.0,94,0.35,,,1.41,,2013-05-24 08:22:00,
2013-05-24 04:33:00,65.0,63.0,29.68,SSE,155,1.0,4.0,94,0.51,,,1.61,,2013-05-24 08:33:00,
2013-05-24 04:42:00,65.0,63.0,29.68,SSE,155,1.0,4.0,94,0.51,,,1.61,,2013-05-24 08:42:00,
2013-05-24 04:52:00,65.0,64.0,29.67,ESE,117,0.0,4.0,95,0.41,,,1.65,,2013-05-24 08:52:00,
2013-05-24 05:02:00,65.0,64.0,29.67,SSE,149,0.0,2.0,95,0.26,,,1.68,,2013-05-24 09:02:00,
2013-05-24 05:11:00,65.0,64.0,29.67,SSE,149,0.0,2.0,95,0.26,,,1.68,,2013-05-24 09:11:00,
2013-05-24 05:21:00,65.0,64.0,29.67,SSE,149,0.0,2.0,95,0.26,,,1.68,,2013-05-24 09:21:00,
2013-05-24 05:32:00,64.0,63.0,29.66,North,0,0.0,0.0,95,0.13,,,1.69,,2013-05-24 09:32:00,
2013-05-24 05:42:00,64.0,63.0,29.66,North,0,0.0,0.0,95,0.13,,,1.69,,2013-05-24 09:42:00,
2013-05-24 05:52:00,64.0,62.0,29.65,North,0,0.0,0.0,94,0.03,,,1.69,,2013-05-24 09:52:00,
2013-05-24 06:03:00,64.0,62.0,29.65,North,0,0.0,0.0,94,0.03,,,1.69,,2013-05-24 10:03:00,
2013-05-24 06:12:00,64.0,62.0,29.65,North,0,0.0,0.0,94,0.03,,,1.69,,2013-05-24 10:12:00,
2013-05-24 06:22:00,64.0,63.0,29.65,North,0,0.0,0.0,95,0.02,,,1.70,,2013-05-24 10:22:00,
2013-05-24 06:33:00,64.0,63.0,29.65,SSE,148,0.0,1.0,95,0.01,,,1.70,,2013-05-24 10:33:00,
2013-05-24 06:42:00,64.0,63.0,29.65,SSE,148,0.0,1.0,95,0.01,,,1.70,,2013-05-24 10:42:00,
2013-05-24 06:53:00,65.0,64.0,29.64,SSE,149,0.0,2.0,95,0.01,,,1.70,,2013-05-24 10:53:00,
2013-05-24 07:02:00,65.0,64.0,29.64,SSE,149,0.0,2.0,95,0.01,,,1.70,,2013-05-24 11:02:00,
2013-05-24 07:12:00,65.0,64.0,29.64,SSE,149,0.0,2.0,95,0.01,,,1.70,,2013-05-24 11:12:00,
2013-05-24 07:22:00,65.0,64.0,29.64,South,188,0.0,1.0,95,0.00,,,1.70,,2013-05-24 11:22:00,
2013-05-24 07:32:00,66.0,65.0,29.62,East,82,0.0,3.0,95,0.00,,,1.70,,2013-05-24 11:32:00,
2013-05-24 07:42:00,66.0,65.0,29.62,East,82,0.0,3.0,95,0.00,,,1.70,,2013-05-24 11:42:00,
2013-05-24 07:52:00,66.0,65.0,29.65,SSE,151,0.0,2.0,95,0.00,,,1.69,,2013-05-24 11:52:00,
2013-05-24 08:02:00,66.0,65.0,29.66,SW,224,1.0,6.0,95,0.00,,,1.69,,2013-05-24 12:02:00,
2013-05-24 08:11:00,66.0,65.0,29.66,SW,224,1.0,6.0,95,0.00,,,1.69,,2013-05-24 12:11:00,
2013-05-24 08:22:00,66.0,65.0,29.67,WSW,242,1.0,10.0,95,0.00,,,1.69,,2013-05-24 12:22:00,
2013-05-24 08:32:00,66.0,65.0,29.68,SW,233,0.0,3.0,95,0.00,,,1.69,,2013-05-24 12:32:00,
2013-05-24 08:42:00,66.0,65.0,29.68,SW,233,0.0,3.0,95,0.00,,,1.69,,2013-05-24 12:42:00,
2013-05-24 08:52:00,66.0,65.0,29.68,SW,233,0.0,3.0,95,0.00,,,1.69,,2013-05-24 12:52:00,
2013-05-24 09:02:00,66.0,65.0,29.69,SW,230,1.0,6.0,95,0.00,,,1.69,,2013-05-24 13:02:00,
2013-05-24 09:11:00,66.0,65.0,29.69,SW,230,1.0,6.0,95,0.00,,,1.69,,2013-05-24 13:11:00,
2013-05-24 09:21:00,66.0,65.0,29.69,SW,230,1.0,6.0,95,0.00,,,1.69,,2013-05-24 13:21:00,
2013-05-24 09:32:00,67.0,66.0,29.69,WSW,241,0.0,2.0,95,0.01,,,1.70,,2013-05-24 13:32:00,
2013-05-24 09:42:00,67.0,66.0,29.69,WSW,241,0.0,2.0,95,0.01,,,1.70,,2013-05-24 13:42:00,
2013-05-24 09:52:00,67.0,66.0,29.69,WSW,246,1.0,5.0,95,0.01,,,1.70,,2013-05-24 13:52:00,
2013-05-24 10:02:00,67.0,66.0,29.70,SW,224,0.0,4.0,95,0.01,,,1.70,,2013-05-24 14:02:00,
2013-05-24 10:11:00,67.0,66.0,29.70,SW,224,0.0,4.0,95,0.01,,,1.70,,2013-05-24 14:11:00,
2013-05-24 10:21:00,68.0,67.0,29.70,SW,222,1.0,5.0,95,0.01,,,1.70,,2013-05-24 14:21:00,
2013-05-24 10:32:00,68.0,67.0,29.70,SW,225,1.0,6.0,95,0.00,,,1.69,,2013-05-24 14:32:00,
2013-05-24 10:42:00,68.0,67.0,29.70,SW,225,1.0,6.0,95,0.00,,,1.69,,2013-05-24 14:42:00,
2013-05-24 10:52:00,68.0,67.0,29.70,SW,217,1.0,4.0,95,0.00,,,1.67,,2013-05-24 14:52:00,
2013-05-24 11:02:00,68.0,67.0,29.70,SW,217,1.0,4.0,95,0.00,,,1.67,,2013-05-24 15:02:00,
2013-05-24 11:11:00,68.0,67.0,29.70,SW,217,1.0,4.0,95,0.00,,,1.67,,2013-05-24 15:11:00,
2013-05-24 11:21:00,68.0,67.0,29.70,SW,217,1.0,4.0,95,0.00,,,1.67,,2013-05-24 15:21:00,
2013-05-24 11:33:00,69.0,67.0,29.71,SW,219,1.0,8.0,92,0.00,,,1.64,,2013-05-24 15:33:00,
2013-05-24 11:43:00,69.0,67.0,29.71,SW,219,1.0,8.0,92,0.00,,,1.64,,2013-05-24 15:43:00,
2013-05-24 11:53:00,70.0,67.0,29.71,SW,214,1.0,5.0,91,0.00,,,1.64,,2013-05-24 15:53:00,
2013-05-24 12:03:00,70.0,67.0,29.71,SW,214,1.0,5.0,91,0.00,,,1.64,,2013-05-24 16:03:00,
2013-05-24 12:10:00,70.0,66.0,29.70,SW,222,1.0,5.0,88,0.00,,,1.64,,2013-05-24 16:10:00,
2013-05-24 12:13:00,70.0,67.0,29.71,SW,214,1.0,5.0,91,0.00,,,1.64,,2013-05-24 16:13:00,
2013-05-24 12:22:00,70.0,67.0,29.70,WNW,286,0.0,6.0,89,0.00,,,1.64,,2013-05-24 16:22:00,
2013-05-24 12:32:00,70.0,66.0,29.70,SW,222,1.0,5.0,88,0.00,,,1.64,,2013-05-24 16:32:00,
2013-05-24 12:42:00,70.0,66.0,29.70,SW,222,1.0,5.0,88,0.00,,,1.64,,2013-05-24 16:42:00,
2013-05-24 12:52:00,70.0,66.0,29.70,SW,222,1.0,5.0,88,0.00,,,1.64,,2013-05-24 16:52:00,
2013-05-24 13:02:00,70.0,66.0,29.70,SW,222,1.0,5.0,88,0.00,,,1.64,,2013-05-24 17:02:00,
2013-05-24 13:32:00,72.0,67.0,29.70,SW,222,1.0,3.0,85,0.00,,,1.64,,2013-05-24 17:32:00,
2013-05-24 13:42:00,72.0,67.0,29.70,SW,222,1.0,3.0,85,0.00,,,1.64,,2013-05-24 17:42:00,
2013-05-24 13:52:00,71.0,66.0,29.70,WSW,244,1.0,3.0,85,0.00,,,1.64,,2013-05-24 17:52:00,
2013-05-24 14:01:00,68.0,63.0,29.71,WNW,295,4.0,13.0,83,0.00,,,1.64,,2013-05-24 18:01:00,
2013-05-24 14:12:00,68.0,63.0,29.71,WNW,295,4.0,13.0,83,0.00,,,1.64,,2013-05-24 18:12:00,
2013-05-24 14:21:00,65.0,61.0,29.72,NW,308,3.0,12.0,87,0.00,,,1.64,,2013-05-24 18:21:00,
2013-05-24 14:32:00,65.0,61.0,29.72,NW,305,2.0,9.0,88,0.00,,,1.64,,2013-05-24 18:32:00,
2013-05-24 14:42:00,65.0,61.0,29.72,NW,305,2.0,9.0,88,0.00,,,1.64,,2013-05-24 18:42:00,
2013-05-24 14:51:00,65.0,61.0,29.72,NW,317,2.0,9.0,87,0.00,,,1.64,,2013-05-24 18:51:00,
2013-05-24 15:01:00,65.0,61.0,29.72,NW,317,2.0,9.0,87,0.00,,,1.64,,2013-05-24 19:01:00,
2013-05-24 15:11:00,65.0,61.0,29.72,NW,317,2.0,9.0,87,0.00,,,1.64,,2013-05-24 19:11:00,
2013-05-24 15:21:00,62.0,58.0,29.72,NW,308,2.0,8.0,88,0.00,,,1.64,,2013-05-24 19:21:00,
2013-05-24 15:32:00,62.0,59.0,29.73,NW,304,1.0,7.0,89,0.00,,,1.64,,2013-05-24 19:32:00,
2013-05-24 15:42:00,62.0,59.0,29.73,NW,304,1.0,7.0,89,0.00,,,1.64,,2013-05-24 19:42:00,
2013-05-24 15:52:00,62.0,59.0,29.73,NW,304,1.0,7.0,89,0.00,,,1.64,,2013-05-24 19:52:00,
2013-05-24 16:02:00,64.0,59.0,29.72,NW,306,1.0,6.0,84,0.00,,,1.64,,2013-05-24 20:02:00,
2013-05-24 16:12:00,64.0,59.0,29.72,NW,306,1.0,6.0,84,0.00,,,1.64,,2013-05-24 20:12:00,
2013-05-24 16:21:00,64.0,58.0,29.73,NW,306,4.0,13.0,80,0.00,,,1.64,,2013-05-24 20:21:00,
2013-05-24 16:32:00,64.0,57.0,29.73,WNW,290,5.0,13.0,77,0.00,,,1.64,,2013-05-24 20:32:00,
2013-05-24 16:42:00,64.0,57.0,29.73,WNW,290,5.0,13.0,77,0.00,,,1.64,,2013-05-24 20:42:00,
2013-05-24 16:52:00,64.0,58.0,29.73,WNW,298,1.0,11.0,80,0.00,,,1.64,,2013-05-24 20:52:00,
2013-05-24 17:01:00,63.0,55.0,29.74,WNW,300,4.0,12.0,76,0.00,,,1.64,,2013-05-24 21:01:00,
2013-05-24 17:11:00,63.0,55.0,29.74,WNW,300,4.0,12.0,76,0.00,,,1.64,,2013-05-24 21:11:00,
2013-05-24 17:21:00,63.0,55.0,29.74,WNW,300,4.0,12.0,76,0.00,,,1.64,,2013-05-24 21:21:00,
2013-05-24 17:33:00,62.0,54.0,29.74,NW,310,3.0,11.0,75,0.00,,,1.63,,2013-05-24 21:33:00,
2013-05-24 17:42:00,62.0,54.0,29.74,NW,310,3.0,11.0,75,0.00,,,1.63,,2013-05-24 21:42:00,
2013-05-24 17:53:00,61.0,54.0,29.74,NW,309,4.0,13.0,78,0.00,,,1.60,,2013-05-24 21:53:00,
2013-05-24 18:03:00,60.0,53.0,29.75,WNW,295,3.0,13.0,77,0.00,,,1.58,,2013-05-24 22:03:00,
2013-05-24 18:12:00,60.0,53.0,29.75,WNW,295,3.0,13.0,77,0.00,,,1.58,,2013-05-24 22:12:00,
2013-05-24 18:22:00,59.0,52.0,29.75,WNW,291,4.0,13.0,77,0.00,,,1.52,,2013-05-24 22:22:00,
2013-05-24 18:33:00,58.0,51.0,29.76,WNW,294,3.0,11.0,78,0.00,,,1.48,,2013-05-24 22:33:00,
2013-05-24 18:42:00,58.0,51.0,29.76,WNW,294,3.0,11.0,78,0.00,,,1.48,,2013-05-24 22:42:00,
2013-05-24 18:52:00,57.0,51.0,29.76,WNW,297,3.0,9.0,80,0.00,,,1.44,,2013-05-24 22:52:00,
2013-05-24 19:02:00,56.0,50.0,29.77,NW,310,2.0,10.0,81,0.00,,,1.40,,2013-05-24 23:02:00,
2013-05-24 19:11:00,56.0,50.0,29.77,NW,310,2.0,10.0,81,0.00,,,1.40,,2013-05-24 23:11:00,
2013-05-24 19:22:00,56.0,50.0,29.77,NW,310,2.0,10.0,81,0.00,,,1.40,,2013-05-24 23:22:00,
2013-05-24 19:32:00,55.0,49.0,29.78,WNW,303,2.0,8.0,81,0.00,,,1.39,,2013-05-24 23:32:00,
2013-05-24 19:42:00,55.0,49.0,29.78,WNW,303,2.0,8.0,81,0.00,,,1.39,,2013-05-24 23:42:00,
2013-05-24 19:52:00,55.0,49.0,29.79,WNW,296,2.0,12.0,81,0.00,,,1.39,,2013-05-24 23:52:00,
2013-05-24 20:01:00,54.0,49.0,29.80,NW,308,3.0,9.0,82,0.00,,,1.38,,2013-05-25 00:01:00,
2013-05-24 20:12:00,54.0,49.0,29.80,NW,308,3.0,9.0,82,0.00,,,1.38,,2013-05-25 00:12:00,
2013-05-24 20:21:00,54.0,49.0,29.80,NW,308,3.0,9.0,82,0.00,,,1.38,,2013-05-25 00:21:00,
2013-05-24 20:32:00,52.0,49.0,29.82,NW,311,1.0,7.0,90,0.06,,,1.43,,2013-05-25 00:32:00,
2013-05-24 20:42:00,52.0,49.0,29.82,NW,311,1.0,7.0,90,0.06,,,1.43,,2013-05-25 00:42:00,
2013-05-24 20:52:00,51.0,48.0,29.81,NW,306,1.0,5.0,91,0.07,,,1.44,,2013-05-25 00:52:00,
2013-05-24 21:01:00,51.0,48.0,29.81,NW,306,1.0,5.0,91,0.07,,,1.44,,2013-05-25 01:01:00,
2013-05-24 21:11:00,51.0,48.0,29.81,NW,306,1.0,5.0,91,0.07,,,1.44,,2013-05-25 01:11:00,
2013-05-24 21:22:00,50.0,48.0,29.82,NW,315,1.0,8.0,92,0.05,,,1.45,,2013-05-25 01:22:00,
2013-05-24 21:42:00,50.0,48.0,29.83,NW,314,2.0,7.0,92,0.02,,,1.45,,2013-05-25 01:42:00,
2013-05-24 21:52:00,50.0,48.0,29.83,NW,325,1.0,5.0,92,0.02,,,1.46,,2013-05-25 01:52:00,
2013-05-24 22:02:00,50.0,48.0,29.83,NW,325,1.0,5.0,92,0.02,,,1.46,,2013-05-25 02:02:00,
2013-05-24 22:12:00,50.0,48.0,29.83,NW,325,1.0,5.0,92,0.02,,,1.46,,2013-05-25 02:12:00,
2013-05-24 22:21:00,49.0,47.0,29.83,NW,310,2.0,7.0,93,0.03,,,1.48,,2013-05-25 02:21:00,
2013-05-24 22:32:00,49.0,47.0,29.83,NW,311,2.0,7.0,93,0.04,,,1.49,,2013-05-25 02:32:00,
2013-05-24 22:42:00,49.0,47.0,29.83,NW,311,2.0,7.0,93,0.04,,,1.49,,2013-05-25 02:42:00,
2013-05-24 22:52:00,49.0,47.0,29.83,NW,311,2.0,7.0,93,0.04,,,1.49,,2013-05-25 02:52:00,
2013-05-24 23:02:00,49.0,47.0,29.83,NW,325,1.0,10.0,93,0.03,,,1.50,,2013-05-25 03:02:00,
2013-05-24 23:11:00,49.0,47.0,29.83,NW,325,1.0,10.0,93,0.03,,,1.50,,2013-05-25 03:11:00,
2013-05-24 23:22:00,49.0,47.0,29.83,NNW,340,1.0,8.0,93,0.02,,,1.44,,2013-05-25 03:22:00,
2013-05-24 23:33:00,49.0,47.0,29.83,NNW,340,1.0,8.0,93,0.02,,,1.44,,2013-05-25 03:33:00,
2013-05-24 23:43:00,49.0,47.0,29.83,NNW,340,1.0,8.0,93,0.02,,,1.44,,2013-05-25 03:43:00,
2013-05-24 23:53:00,49.0,47.0,29.83,NNW,331,1.0,4.0,93,0.02,,,1.34,,2013-05-25 03:53:00,